Time;durP1;ratioP1;P1;durP2;ratioP2;P2;SDS_P1;SDS_P2;PMS_P1;PMS_P2;Temp;Humidity;BMP_temperature;BMP_pressure;BME280_temperature;BME280_humidity;BME280_pressure;Samples;Min_cycle;Max_cycle;Signal;HPM_P1;HPM_P2
2022/10/15 00:00:36;;;;;;;24.53;13.13;;;7.70;99.90;;;;;;4178089;28;20025;-61
2022/10/15 00:02:37;;;;;;;23.20;13.63;;;7.60;99.90;;;;;;4177344;28;20025;-61
2022/10/15 00:04:38;;;;;;;24.20;13.67;;;7.60;99.90;;;;;;4176502;28;20103;-61
2022/10/15 00:06:39;;;;;;;27.50;12.80;;;7.60;99.90;;;;;;4176770;28;20083;-62
2022/10/15 00:08:41;;;;;;;23.70;12.53;;;7.60;99.90;;;;;;4182063;28;20036;-62
2022/10/15 00:10:42;;;;;;;23.23;12.27;;;7.60;99.90;;;;;;4197177;28;20445;-61
2022/10/15 00:12:43;;;;;;;24.77;14.07;;;7.60;99.90;;;;;;4186754;28;20036;-62
2022/10/15 00:14:44;;;;;;;28.07;12.63;;;7.50;99.90;;;;;;4180982;28;20063;-61
2022/10/15 00:16:46;;;;;;;24.47;13.37;;;7.50;99.90;;;;;;4179880;28;20095;-62
2022/10/15 00:18:48;;;;;;;24.63;13.27;;;7.50;99.90;;;;;;4190096;28;20113;-62
2022/10/15 00:20:49;;;;;;;22.50;11.33;;;7.50;99.90;;;;;;4181016;28;20063;-62
2022/10/15 00:22:50;;;;;;;22.60;12.07;;;7.50;99.90;;;;;;4161232;28;20100;-62
2022/10/15 00:24:51;;;;;;;20.03;11.57;;;7.50;99.90;;;;;;4179657;28;20454;-62
2022/10/15 00:26:52;;;;;;;21.90;11.63;;;7.50;99.90;;;;;;4179593;28;20041;-62
2022/10/15 00:28:57;;;;;;;30.07;13.67;;;7.50;99.90;;;;;;4162592;28;20026;-62
2022/10/15 00:31:00;;;;;;;22.20;12.33;;;7.50;99.90;;;;;;4169280;28;20099;-62
2022/10/15 00:33:02;;;;;;;21.53;11.90;;;7.40;99.90;;;;;;4180250;28;20075;-62
2022/10/15 00:35:03;;;;;;;18.70;11.93;;;7.40;99.90;;;;;;4188839;28;20097;-62
2022/10/15 00:37:04;;;;;;;18.33;11.47;;;7.40;99.90;;;;;;4191783;28;20032;-61
2022/10/15 00:39:06;;;;;;;21.90;12.40;;;7.30;99.90;;;;;;4178885;28;20480;-62
2022/10/15 00:41:13;;;;;;;21.77;12.93;;;7.30;99.90;;;;;;4179249;28;20033;-61
2022/10/15 00:43:14;;;;;;;21.07;13.00;;;7.30;99.90;;;;;;4179152;28;20079;-61
2022/10/15 00:45:15;;;;;;;29.90;13.83;;;7.20;99.90;;;;;;4180377;28;20095;-62
2022/10/15 00:47:28;;;;;;;24.73;12.67;;;7.20;99.90;;;;;;4179143;28;20078;-62
2022/10/15 00:49:58;;;;;;;21.43;12.00;;;7.20;99.90;;;;;;4181174;28;20071;-62
2022/10/15 00:52:22;;;;;;;18.08;11.15;;;7.20;99.90;;;;;;4175783;28;20041;-62
2022/10/15 00:54:25;;;;;;;18.90;10.73;;;7.20;99.90;;;;;;4179205;28;20098;-61
2022/10/15 00:56:29;;;;;;;21.03;11.17;;;7.10;99.90;;;;;;4179003;28;20098;-62
2022/10/15 00:58:31;;;;;;;17.03;10.00;;;7.10;99.90;;;;;;4181304;28;20033;-61
2022/10/15 01:00:32;;;;;;;13.43;8.50;;;7.00;99.90;;;;;;4179807;28;20037;-62
2022/10/15 01:02:34;;;;;;;36.00;8.93;;;6.80;99.90;;;;;;4179321;28;20476;-62
2022/10/15 01:04:36;;;;;;;15.37;9.77;;;6.60;99.90;;;;;;4178589;28;20095;-62
2022/10/15 01:06:38;;;;;;;16.37;10.23;;;6.40;99.90;;;;;;4195850;28;20040;-62
2022/10/15 01:08:39;;;;;;;17.10;10.77;;;6.30;99.90;;;;;;4168923;28;20045;-61
2022/10/15 01:10:53;;;;;;;19.20;11.07;;;6.20;99.90;;;;;;4163431;28;20095;-62
2022/10/15 01:13:14;;;;;;;22.40;10.43;;;6.30;99.90;;;;;;4162354;28;20029;-61
2022/10/15 01:15:54;;;;;;;14.23;9.23;;;6.30;99.90;;;;;;4163312;28;20123;-61
2022/10/15 01:18:11;;;;;;;14.40;9.95;;;6.20;99.90;;;;;;4165286;28;20090;-61
2022/10/15 01:20:25;;;;;;;15.47;9.47;;;6.20;99.90;;;;;;4195823;28;20033;-61
2022/10/15 01:22:55;;;;;;;17.27;10.57;;;6.20;99.90;;;;;;4192638;28;20040;-61
2022/10/15 01:25:27;;;;;;;15.73;9.97;;;6.10;99.90;;;;;;4189812;28;20041;-61
2022/10/15 01:27:45;;;;;;;21.07;11.37;;;6.10;99.90;;;;;;4179314;28;20530;-61
2022/10/15 01:30:13;;;;;;;18.73;11.30;;;6.00;99.90;;;;;;4179391;28;20017;-62
2022/10/15 01:32:27;;;;;;;17.73;10.60;;;5.90;99.90;;;;;;4179524;28;20040;-62
2022/10/15 01:34:55;;;;;;;20.27;11.70;;;5.70;99.90;;;;;;4185658;28;20040;-61
2022/10/15 01:37:03;;;;;;;21.00;12.20;;;5.60;99.90;;;;;;4195916;28;20036;-61
2022/10/15 01:39:13;;;;;;;17.93;11.43;;;5.50;99.90;;;;;;4192956;28;20045;-61
2022/10/15 01:41:17;;;;;;;20.27;12.55;;;5.60;99.90;;;;;;4179412;28;20032;-60
2022/10/15 01:44:02;;;;;;;70.57;14.87;;;5.60;99.90;;;;;;4178219;28;20075;-60
2022/10/15 01:46:10;;;;;;;94.73;15.07;;;5.60;99.90;;;;;;4157512;28;20090;-61
2022/10/15 01:48:12;;;;;;;77.33;14.67;;;5.40;99.90;;;;;;4179501;28;20090;-61
2022/10/15 01:50:15;;;;;;;31.37;13.90;;;5.30;99.90;;;;;;4181156;28;20045;-61
2022/10/15 01:52:28;;;;;;;77.70;13.90;;;5.30;99.90;;;;;;4178222;28;20099;-61
2022/10/15 01:54:30;;;;;;;50.77;15.33;;;5.30;99.90;;;;;;4179071;28;20107;-61
2022/10/15 01:56:32;;;;;;;197.07;23.70;;;5.20;99.90;;;;;;4176959;28;20041;-63
2022/10/15 01:58:38;;;;;;;89.73;17.07;;;5.00;99.90;;;;;;4181793;28;20029;-61
2022/10/15 02:00:41;;;;;;;85.90;18.17;;;5.00;99.90;;;;;;4193227;28;20112;-61
2022/10/15 02:02:43;;;;;;;142.53;19.97;;;4.90;99.90;;;;;;4194422;28;20094;-61
2022/10/15 02:04:44;;;;;;;59.77;17.90;;;4.90;99.90;;;;;;4191592;28;20189;-61
2022/10/15 02:06:50;;;;;;;99.83;18.70;;;4.80;99.90;;;;;;4178978;28;20037;-62
2022/10/15 02:09:05;;;;;;;159.30;21.70;;;4.70;99.90;;;;;;4180871;28;20569;-61
2022/10/15 02:11:13;;;;;;;142.77;20.73;;;4.70;99.90;;;;;;4194723;28;20086;-61
2022/10/15 02:13:17;;;;;;;104.23;21.33;;;4.60;99.90;;;;;;4194460;28;20074;-61
2022/10/15 02:15:21;;;;;;;136.50;22.67;;;4.60;99.90;;;;;;4195098;28;20546;-61
2022/10/15 02:17:33;;;;;;;109.33;22.03;;;4.60;99.90;;;;;;4193947;28;20040;-61
2022/10/15 02:19:55;;;;;;;77.10;21.33;;;4.60;99.90;;;;;;4190144;28;20021;-62
2022/10/15 02:22:01;;;;;;;71.17;19.97;;;4.60;99.90;;;;;;4177877;28;20075;-61
2022/10/15 02:24:27;;;;;;;141.17;22.50;;;4.60;99.90;;;;;;4179593;28;20361;-61
2022/10/15 02:26:29;;;;;;;40.37;17.60;;;4.60;99.90;;;;;;4182507;28;20569;-61
2022/10/15 02:28:33;;;;;;;37.10;18.77;;;4.70;99.90;;;;;;4192794;28;20887;-61
2022/10/15 02:30:38;;;;;;;71.03;19.20;;;4.80;99.90;;;;;;4159712;28;20041;-62
2022/10/15 02:32:41;;;;;;;65.00;19.80;;;4.90;99.90;;;;;;4161657;28;20456;-61
2022/10/15 02:34:45;;;;;;;64.93;20.50;;;4.90;99.90;;;;;;4175545;28;20037;-61
2022/10/15 02:36:46;;;;;;;89.23;20.23;;;4.90;99.90;;;;;;4180247;28;20033;-61
2022/10/15 02:38:49;;;;;;;25.77;16.17;;;4.90;99.90;;;;;;4193600;28;20522;-61
2022/10/15 02:40:51;;;;;;;44.23;17.77;;;4.90;99.90;;;;;;4193562;28;20546;-61
2022/10/15 02:42:53;;;;;;;32.23;18.30;;;5.00;99.90;;;;;;4194431;28;20025;-61
2022/10/15 02:44:54;;;;;;;28.03;17.80;;;5.10;99.90;;;;;;4193511;28;20424;-61
2022/10/15 02:46:57;;;;;;;32.77;18.57;;;5.20;99.90;;;;;;4194361;28;20091;-61
2022/10/15 02:48:58;;;;;;;26.87;17.63;;;5.20;99.90;;;;;;4193632;28;20021;-61
2022/10/15 02:50:59;;;;;;;31.83;18.77;;;5.30;99.90;;;;;;4183990;28;20094;-61
2022/10/15 02:53:01;;;;;;;31.60;17.53;;;5.40;99.90;;;;;;4189899;28;20109;-61
2022/10/15 02:55:02;;;;;;;26.47;17.30;;;5.40;99.90;;;;;;4178210;28;20040;-62
2022/10/15 02:57:03;;;;;;;28.13;17.10;;;5.40;99.90;;;;;;4177197;28;20025;-61
2022/10/15 02:59:05;;;;;;;31.53;17.50;;;5.50;99.90;;;;;;4179332;28;20041;-61
2022/10/15 03:01:06;;;;;;;32.10;18.73;;;5.50;99.90;;;;;;4193791;28;20070;-62
2022/10/15 03:03:07;;;;;;;42.00;23.07;;;5.60;99.90;;;;;;4194146;28;20040;-62
2022/10/15 03:05:09;;;;;;;40.10;23.03;;;5.70;99.90;;;;;;4182746;28;20052;-61
2022/10/15 03:07:10;;;;;;;51.77;28.47;;;5.70;99.90;;;;;;4191713;28;20037;-62
2022/10/15 03:09:11;;;;;;;55.33;29.83;;;5.80;99.90;;;;;;4192744;28;20094;-61
2022/10/15 03:11:12;;;;;;;54.33;28.30;;;5.80;99.90;;;;;;4178908;28;20037;-62
2022/10/15 03:13:13;;;;;;;47.00;26.50;;;5.80;99.90;;;;;;4177518;28;20336;-62
2022/10/15 03:15:15;;;;;;;49.33;28.60;;;5.90;99.90;;;;;;4177406;28;20040;-62
2022/10/15 03:17:16;;;;;;;39.47;22.03;;;5.90;99.90;;;;;;4176692;28;20095;-62
2022/10/15 03:19:17;;;;;;;44.73;21.97;;;6.00;99.90;;;;;;4177067;28;20033;-63
2022/10/15 03:21:18;;;;;;;57.27;22.87;;;6.00;99.90;;;;;;4177545;28;20045;-62
2022/10/15 03:23:19;;;;;;;52.27;23.03;;;6.10;99.90;;;;;;4176892;28;20087;-62
2022/10/15 03:25:20;;;;;;;46.87;21.77;;;6.10;99.90;;;;;;4179252;28;20543;-61
2022/10/15 03:27:23;;;;;;;43.77;21.97;;;6.20;99.90;;;;;;4176905;28;20033;-62
2022/10/15 03:29:25;;;;;;;49.33;22.43;;;6.20;99.90;;;;;;4179115;28;20025;-62
2022/10/15 03:31:26;;;;;;;58.20;19.97;;;6.30;99.90;;;;;;4181000;28;20361;-61
2022/10/15 03:33:27;;;;;;;50.20;20.20;;;6.30;99.90;;;;;;4193548;28;20036;-60
2022/10/15 03:35:28;;;;;;;62.03;18.57;;;6.30;99.90;;;;;;4185075;28;20037;-60
2022/10/15 03:37:29;;;;;;;52.30;18.10;;;6.40;99.90;;;;;;4179048;28;20029;-62
2022/10/15 03:39:31;;;;;;;38.00;16.23;;;6.40;99.90;;;;;;4178006;28;20029;-61
2022/10/15 03:41:32;;;;;;;64.50;18.63;;;6.40;99.90;;;;;;4177973;28;20086;-62
2022/10/15 03:43:33;;;;;;;42.13;16.37;;;6.50;99.90;;;;;;4194976;28;20040;-63
2022/10/15 03:45:34;;;;;;;46.00;17.57;;;6.40;99.90;;;;;;4196815;28;20029;-61
2022/10/15 03:47:35;;;;;;;38.77;16.37;;;6.40;99.90;;;;;;4196182;28;20044;-60
2022/10/15 03:49:36;;;;;;;38.27;14.77;;;6.40;99.90;;;;;;4193898;28;20101;-61
2022/10/15 03:51:37;;;;;;;41.67;14.43;;;6.40;99.90;;;;;;4181429;28;20025;-60
2022/10/15 03:53:38;;;;;;;34.30;15.17;;;6.40;99.90;;;;;;4179197;28;20436;-60
2022/10/15 03:55:39;;;;;;;32.03;13.97;;;6.40;99.90;;;;;;4181006;28;20041;-60
2022/10/15 03:57:41;;;;;;;28.83;14.73;;;6.40;99.90;;;;;;4179109;28;20041;-60
2022/10/15 03:59:42;;;;;;;44.30;13.97;;;6.40;99.90;;;;;;4181273;28;20102;-61
2022/10/15 04:01:43;;;;;;;41.77;14.67;;;6.40;99.90;;;;;;4186468;28;20063;-61
2022/10/15 04:03:45;;;;;;;33.10;14.10;;;6.40;99.90;;;;;;4197435;28;20563;-60
2022/10/15 04:05:52;;;;;;;31.03;14.53;;;6.40;99.90;;;;;;4179863;28;20405;-61
2022/10/15 04:07:55;;;;;;;43.63;13.13;;;6.40;99.90;;;;;;4180238;28;20049;-62
2022/10/15 04:09:56;;;;;;;42.83;14.67;;;6.50;99.90;;;;;;4182644;28;20040;-62
2022/10/15 04:11:57;;;;;;;41.93;16.10;;;6.40;99.90;;;;;;4197414;28;20032;-62
2022/10/15 04:13:58;;;;;;;42.70;14.63;;;6.50;99.90;;;;;;4195724;28;20090;-61
2022/10/15 04:15:59;;;;;;;39.97;16.13;;;6.50;99.90;;;;;;4180402;28;20037;-61
2022/10/15 04:18:00;;;;;;;53.27;15.97;;;6.50;99.90;;;;;;4181381;28;20054;-61
2022/10/15 04:20:01;;;;;;;43.77;16.23;;;6.50;99.90;;;;;;4179862;28;20067;-62
2022/10/15 04:22:03;;;;;;;65.70;16.57;;;6.40;99.90;;;;;;4180704;28;20037;-62
2022/10/15 04:24:04;;;;;;;55.20;15.73;;;6.40;99.90;;;;;;4179393;28;20040;-62
2022/10/15 04:26:06;;;;;;;42.40;15.30;;;6.30;99.90;;;;;;4181665;28;20509;-61
2022/10/15 04:28:07;;;;;;;78.57;16.17;;;6.40;99.90;;;;;;4178365;28;20053;-61
2022/10/15 04:30:09;;;;;;;61.67;15.73;;;6.40;99.90;;;;;;4180352;28;20083;-61
2022/10/15 04:32:16;;;;;;;71.17;16.13;;;6.30;99.90;;;;;;4184063;28;20443;-61
2022/10/15 04:34:17;;;;;;;88.77;17.33;;;6.30;99.90;;;;;;4196660;28;20040;-61
2022/10/15 04:36:18;;;;;;;51.50;14.67;;;6.30;99.90;;;;;;4193435;28;20492;-61
2022/10/15 04:38:19;;;;;;;36.83;14.60;;;6.20;99.90;;;;;;4196818;28;20028;-62
2022/10/15 04:40:20;;;;;;;64.37;14.70;;;6.30;99.90;;;;;;4195450;28;20365;-61
2022/10/15 04:42:21;;;;;;;52.87;16.23;;;6.30;99.90;;;;;;4186107;28;20049;-61
2022/10/15 04:44:23;;;;;;;60.70;16.13;;;6.30;99.90;;;;;;4194885;28;20062;-62
2022/10/15 04:46:24;;;;;;;44.30;15.83;;;6.30;99.90;;;;;;4193971;28;20045;-62
2022/10/15 04:48:30;;;;;;;54.80;15.87;;;6.30;99.90;;;;;;4195162;28;20105;-62
2022/10/15 04:50:31;;;;;;;43.73;15.17;;;6.30;99.90;;;;;;4196253;28;20024;-62
2022/10/15 04:52:34;;;;;;;61.73;16.87;;;6.30;99.90;;;;;;4189233;28;20106;-61
2022/10/15 04:54:35;;;;;;;49.20;15.23;;;6.30;99.90;;;;;;4179145;28;20465;-61
2022/10/15 04:56:36;;;;;;;45.27;15.60;;;6.40;99.90;;;;;;4179009;28;20053;-61
2022/10/15 04:58:37;;;;;;;41.83;14.17;;;6.30;99.90;;;;;;4179896;28;20037;-61
2022/10/15 05:00:39;;;;;;;43.13;17.57;;;6.40;99.90;;;;;;4190234;28;20431;-61
2022/10/15 05:02:43;;;;;;;41.03;17.10;;;6.40;99.90;;;;;;4178465;28;20025;-62
2022/10/15 05:04:44;;;;;;;54.97;20.27;;;6.40;99.90;;;;;;4179325;28;20072;-60
2022/10/15 05:06:45;;;;;;;67.93;23.50;;;6.50;99.90;;;;;;4194075;28;20086;-61
2022/10/15 05:08:48;;;;;;;62.37;23.10;;;6.50;99.90;;;;;;4195289;28;20049;-61
2022/10/15 05:10:49;;;;;;;61.23;19.77;;;6.50;99.90;;;;;;4194144;28;20094;-61
2022/10/15 05:12:50;;;;;;;90.83;27.10;;;6.60;99.90;;;;;;4195471;28;20114;-61
2022/10/15 05:14:51;;;;;;;77.73;28.30;;;6.60;99.90;;;;;;4193229;28;20377;-60
2022/10/15 05:16:52;;;;;;;90.77;28.13;;;6.50;99.90;;;;;;4181924;28;20095;-62
2022/10/15 05:18:59;;;;;;;82.67;28.00;;;6.60;99.90;;;;;;4178317;28;20075;-61
2022/10/15 05:21:01;;;;;;;70.77;25.83;;;6.60;99.90;;;;;;4182607;28;20436;-61
2022/10/15 05:23:03;;;;;;;68.73;24.47;;;6.60;99.90;;;;;;4178689;28;20090;-61
2022/10/15 05:25:04;;;;;;;88.40;30.73;;;6.60;99.90;;;;;;4179969;28;20032;-62
2022/10/15 05:27:06;;;;;;;88.80;29.37;;;6.70;99.90;;;;;;4178623;28;20025;-61
2022/10/15 05:29:08;;;;;;;75.73;23.83;;;6.70;99.90;;;;;;4162212;28;20478;-62
2022/10/15 05:31:12;;;;;;;71.30;21.47;;;6.60;99.90;;;;;;4178079;28;20041;-61
2022/10/15 05:33:13;;;;;;;58.60;19.10;;;6.60;99.90;;;;;;4185307;28;20093;-61
2022/10/15 05:35:14;;;;;;;42.47;15.73;;;6.60;99.90;;;;;;4185532;28;20511;-61
2022/10/15 05:37:15;;;;;;;46.87;16.97;;;6.60;99.90;;;;;;4177766;28;20389;-60
2022/10/15 05:39:16;;;;;;;43.10;13.83;;;6.70;99.90;;;;;;4178862;28;20037;-62
2022/10/15 05:41:18;;;;;;;35.90;14.60;;;6.70;99.90;;;;;;4177694;28;20114;-61
2022/10/15 05:43:19;;;;;;;28.23;13.20;;;6.70;99.90;;;;;;4178962;28;20029;-62
2022/10/15 05:45:20;;;;;;;27.80;14.73;;;6.80;99.90;;;;;;4177790;28;20029;-61
2022/10/15 05:47:21;;;;;;;24.47;12.90;;;6.80;99.90;;;;;;4178842;28;20041;-62
2022/10/15 05:49:22;;;;;;;24.07;12.50;;;6.90;99.90;;;;;;4177145;28;20622;-61
2022/10/15 05:51:25;;;;;;;21.90;11.70;;;6.90;99.90;;;;;;4179418;28;20078;-60
2022/10/15 05:53:27;;;;;;;25.10;12.67;;;6.90;99.90;;;;;;4177976;28;20083;-61
2022/10/15 05:55:28;;;;;;;27.87;13.03;;;7.00;99.90;;;;;;4178185;28;20492;-61
2022/10/15 05:57:30;;;;;;;23.70;12.07;;;7.10;99.90;;;;;;4176877;28;20079;-61
2022/10/15 05:59:31;;;;;;;26.73;11.97;;;7.10;99.90;;;;;;4177841;28;20029;-62
2022/10/15 06:01:32;;;;;;;26.13;11.50;;;7.20;99.90;;;;;;4178442;28;20493;-62
2022/10/15 06:03:34;;;;;;;29.50;12.73;;;7.20;99.90;;;;;;4179785;28;20059;-62
2022/10/15 06:05:35;;;;;;;27.70;13.50;;;7.10;99.90;;;;;;4185106;28;20053;-62
2022/10/15 06:07:36;;;;;;;26.43;11.70;;;7.10;99.90;;;;;;4177466;28;20138;-62
2022/10/15 06:09:37;;;;;;;25.23;12.03;;;7.10;99.90;;;;;;4177896;28;20461;-61
2022/10/15 06:11:38;;;;;;;25.77;12.23;;;7.20;99.90;;;;;;4176673;28;20029;-61
2022/10/15 06:13:40;;;;;;;23.30;11.67;;;7.20;99.90;;;;;;4178154;28;20447;-63
2022/10/15 06:15:44;;;;;;;31.33;14.17;;;7.20;99.90;;;;;;4175744;28;20057;-61
2022/10/15 06:17:45;;;;;;;32.30;15.50;;;7.20;99.90;;;;;;4177840;28;20087;-63
2022/10/15 06:19:46;;;;;;;24.27;12.63;;;7.20;99.90;;;;;;4177269;28;20526;-62
2022/10/15 06:21:47;;;;;;;55.83;22.67;;;7.20;99.90;;;;;;4178500;28;20041;-62
2022/10/15 06:23:48;;;;;;;34.30;16.17;;;7.20;99.90;;;;;;4180784;28;20082;-61
2022/10/15 06:25:50;;;;;;;30.10;12.83;;;7.20;99.90;;;;;;4166463;28;20087;-61
2022/10/15 06:27:52;;;;;;;22.93;12.33;;;7.20;99.90;;;;;;4176198;28;20037;-60
2022/10/15 06:29:53;;;;;;;26.30;12.60;;;7.20;99.90;;;;;;4177094;28;20028;-61
2022/10/15 06:31:54;;;;;;;32.80;14.47;;;7.20;99.90;;;;;;4176935;28;20036;-62
2022/10/15 06:33:55;;;;;;;26.53;13.70;;;7.20;99.90;;;;;;4176771;28;20424;-61
2022/10/15 06:36:08;;;;;;;29.30;13.60;;;7.20;99.90;;;;;;4176843;28;20049;-61
2022/10/15 06:38:09;;;;;;;34.47;16.47;;;7.20;99.90;;;;;;4188832;28;20467;-62
2022/10/15 06:40:11;;;;;;;56.40;25.07;;;7.10;99.90;;;;;;4194356;28;20123;-63
2022/10/15 06:42:13;;;;;;;48.60;21.13;;;7.10;99.90;;;;;;4192262;28;20082;-62
2022/10/15 06:44:14;;;;;;;47.33;22.30;;;7.00;99.90;;;;;;4194701;28;20028;-62
2022/10/15 06:46:15;;;;;;;62.63;22.37;;;6.90;99.90;;;;;;4193215;28;20032;-62
2022/10/15 06:48:17;;;;;;;93.67;25.57;;;6.90;99.90;;;;;;4194285;28;20109;-61
2022/10/15 06:50:18;;;;;;;59.60;23.07;;;6.80;99.90;;;;;;4193298;28;20033;-62
2022/10/15 06:52:19;;;;;;;57.20;24.60;;;6.80;99.90;;;;;;4194861;28;20032;-62
2022/10/15 06:54:20;;;;;;;54.37;23.80;;;6.80;99.90;;;;;;4193170;28;20028;-62
2022/10/15 06:56:22;;;;;;;64.40;25.67;;;6.80;99.90;;;;;;4192025;28;20556;-62
2022/10/15 06:58:23;;;;;;;73.53;30.67;;;6.80;99.90;;;;;;4192801;28;20028;-61
2022/10/15 07:00:24;;;;;;;73.83;29.50;;;6.90;99.90;;;;;;4193882;28;20024;-61
2022/10/15 07:02:25;;;;;;;73.57;27.43;;;6.90;99.90;;;;;;4193433;28;20054;-62
2022/10/15 07:04:26;;;;;;;102.77;31.67;;;6.90;99.90;;;;;;4193317;28;20080;-62
2022/10/15 07:06:27;;;;;;;101.10;31.97;;;7.00;99.90;;;;;;4191657;28;20078;-62
2022/10/15 07:08:29;;;;;;;96.03;31.17;;;7.10;99.90;;;;;;4176764;28;20447;-62
2022/10/15 07:10:30;;;;;;;55.13;19.43;;;7.20;99.90;;;;;;4176804;28;20045;-63
2022/10/15 07:12:31;;;;;;;35.87;15.40;;;7.20;99.90;;;;;;4176468;28;20054;-62
2022/10/15 07:14:32;;;;;;;45.23;21.53;;;7.20;99.90;;;;;;4176944;28;20036;-61
2022/10/15 07:16:33;;;;;;;38.87;16.43;;;7.20;99.90;;;;;;4176179;28;20102;-62
2022/10/15 07:18:35;;;;;;;54.73;23.40;;;7.20;99.90;;;;;;4178353;28;20040;-62
2022/10/15 07:20:36;;;;;;;56.93;22.77;;;7.30;99.90;;;;;;4181397;28;20485;-59
2022/10/15 07:22:37;;;;;;;47.80;17.83;;;7.30;99.90;;;;;;4181610;28;20083;-61
2022/10/15 07:24:38;;;;;;;43.87;17.13;;;7.40;99.90;;;;;;4173487;28;20084;-62
2022/10/15 07:26:39;;;;;;;46.03;19.20;;;7.50;99.90;;;;;;4178104;28;20028;-62
2022/10/15 07:28:40;;;;;;;52.93;19.43;;;7.50;99.90;;;;;;4179296;28;20110;-62
2022/10/15 07:30:42;;;;;;;55.43;19.10;;;7.50;99.90;;;;;;4180008;28;20102;-62
2022/10/15 07:32:43;;;;;;;47.93;18.10;;;7.60;99.90;;;;;;4179904;28;20041;-61
2022/10/15 07:34:44;;;;;;;46.70;15.63;;;7.70;99.90;;;;;;4183390;28;20033;-62
2022/10/15 07:36:45;;;;;;;33.20;15.53;;;7.70;99.90;;;;;;4179658;28;20048;-62
2022/10/15 07:38:46;;;;;;;27.03;14.20;;;7.80;99.90;;;;;;4179378;28;20124;-61
2022/10/15 07:40:47;;;;;;;24.50;13.67;;;7.80;99.90;;;;;;4180956;28;20084;-62
2022/10/15 07:43:07;;;;;;;30.53;13.20;;;7.80;99.90;;;;;;4178743;28;20433;-61
2022/10/15 07:45:08;;;;;;;33.47;14.47;;;7.80;99.90;;;;;;4179618;28;20504;-61
2022/10/15 07:47:09;;;;;;;23.90;13.33;;;7.80;99.90;;;;;;4189613;28;20105;-61
2022/10/15 07:49:10;;;;;;;25.23;13.93;;;7.90;99.90;;;;;;4180513;28;20082;-62
2022/10/15 07:51:12;;;;;;;27.03;14.93;;;8.00;99.90;;;;;;4181092;28;20032;-62
2022/10/15 07:53:13;;;;;;;24.90;13.40;;;8.20;99.90;;;;;;4180255;28;20037;-62
2022/10/15 07:55:14;;;;;;;28.80;12.50;;;8.30;99.90;;;;;;4179416;28;20075;-61
2022/10/15 07:57:16;;;;;;;27.43;11.03;;;8.40;99.90;;;;;;4179469;28;20060;-62
2022/10/15 07:59:17;;;;;;;26.00;11.83;;;8.40;99.90;;;;;;4178653;28;20542;-61
2022/10/15 08:01:20;;;;;;;19.27;11.43;;;8.40;99.90;;;;;;4181842;28;20067;-61
2022/10/15 08:03:21;;;;;;;33.43;12.70;;;8.50;99.90;;;;;;4178257;28;20039;-62
2022/10/15 08:05:22;;;;;;;42.33;13.43;;;8.40;99.90;;;;;;4196390;28;20099;-62
2022/10/15 08:07:23;;;;;;;23.40;11.60;;;8.40;99.90;;;;;;4195821;28;20032;-62
2022/10/15 08:09:24;;;;;;;28.50;14.83;;;8.30;99.90;;;;;;4195300;28;20427;-61
2022/10/15 08:11:26;;;;;;;45.53;13.80;;;8.20;99.90;;;;;;4176206;28;20033;-62
2022/10/15 08:13:27;;;;;;;28.03;12.67;;;8.10;99.90;;;;;;4186225;28;20455;-62
2022/10/15 08:15:28;;;;;;;29.67;14.07;;;8.00;99.90;;;;;;4180434;28;20083;-62
2022/10/15 08:17:29;;;;;;;40.13;13.67;;;8.00;99.90;;;;;;4187248;28;20049;-61
2022/10/15 08:19:30;;;;;;;33.00;14.73;;;8.00;99.90;;;;;;4163635;28;20029;-62
2022/10/15 08:21:31;;;;;;;28.57;14.03;;;7.90;99.90;;;;;;4178659;28;20036;-61
2022/10/15 08:23:34;;;;;;;35.03;18.40;;;7.90;99.90;;;;;;4179275;28;20045;-63
2022/10/15 08:25:35;;;;;;;38.57;19.17;;;7.90;99.90;;;;;;4159150;28;20041;-62
2022/10/15 08:27:36;;;;;;;43.97;20.27;;;7.90;99.90;;;;;;4179276;28;20049;-65
2022/10/15 08:29:37;;;;;;;48.50;24.37;;;7.80;99.90;;;;;;4160705;28;20033;-64
2022/10/15 08:31:39;;;;;;;40.33;21.53;;;7.90;99.90;;;;;;4180040;28;20087;-65
2022/10/15 08:33:40;;;;;;;95.57;21.17;;;7.90;99.90;;;;;;4178884;28;20025;-63
2022/10/15 08:35:42;;;;;;;47.83;22.57;;;7.90;99.90;;;;;;4180404;28;20021;-64
2022/10/15 08:37:43;;;;;;;53.17;23.40;;;7.80;99.90;;;;;;4178336;28;20126;-65
2022/10/15 08:39:45;;;;;;;52.90;23.37;;;7.80;99.90;;;;;;4178414;28;20095;-67
2022/10/15 08:41:53;;;;;;;45.17;21.23;;;7.80;99.90;;;;;;4179416;28;20096;-64
2022/10/15 08:43:55;;;;;;;51.57;17.20;;;7.70;99.90;;;;;;4184307;28;20090;-63
2022/10/15 08:46:00;;;;;;;43.10;19.07;;;7.80;99.90;;;;;;4195948;28;20028;-67
2022/10/15 08:48:30;;;;;;;30.97;16.57;;;7.90;99.90;;;;;;4194911;28;20610;-62
2022/10/15 08:50:53;;;;;;;30.88;15.35;;;8.00;99.90;;;;;;4186096;28;20044;-59
2022/10/15 08:52:56;;;;;;;38.30;16.47;;;8.10;99.90;;;;;;4193669;28;20454;-61
2022/10/15 08:55:00;;;;;;;30.80;15.07;;;8.10;99.90;;;;;;4195318;28;20104;-64
2022/10/15 08:57:36;;;;;;;38.10;16.27;;;8.10;99.90;;;;;;4195388;28;20036;-67
2022/10/15 09:00:11;;;;;;;30.60;16.17;;;8.10;99.90;;;;;;4189892;28;20078;-64
2022/10/15 09:02:25;;;;;;;38.33;17.13;;;8.10;99.90;;;;;;4195932;28;20052;-66
2022/10/15 09:04:52;;;;;;;33.67;16.03;;;8.10;99.90;;;;;;4192606;28;20439;-65
2022/10/15 09:07:23;;;;;;;34.00;17.07;;;8.20;99.90;;;;;;4160974;28;20095;-65
2022/10/15 09:09:41;;;;;;;34.38;17.13;;;8.30;99.90;;;;;;4160840;28;20044;-66
2022/10/15 09:12:00;;;;;;;24.37;13.90;;;8.40;99.90;;;;;;4162591;28;20021;-65
2022/10/15 09:14:04;;;;;;;28.37;14.43;;;8.50;99.90;;;;;;4160769;28;20172;-68
2022/10/15 09:16:17;;;;;;;30.93;15.70;;;8.60;99.90;;;;;;4175960;28;20044;-64
2022/10/15 09:18:23;;;;;;;25.47;13.00;;;8.80;99.90;;;;;;4184079;28;20028;-65
2022/10/15 09:20:35;;;;;;;25.03;14.07;;;8.80;99.90;;;;;;4195522;28;20086;-65
2022/10/15 09:22:36;;;;;;;23.73;12.40;;;8.90;99.90;;;;;;4177880;28;20079;-69
2022/10/15 09:24:37;;;;;;;21.67;12.13;;;9.00;99.90;;;;;;4162814;28;20029;-67
2022/10/15 09:26:53;;;;;;;24.60;14.03;;;9.00;99.90;;;;;;4176346;28;20032;-65
2022/10/15 09:29:17;;;;;;;20.57;10.33;;;9.10;99.90;;;;;;4160845;28;20033;-66
2022/10/15 09:31:22;;;;;;;26.93;13.90;;;9.20;99.90;;;;;;4178111;28;20025;-64
2022/10/15 09:33:44;;;;;;;23.07;13.13;;;9.20;99.90;;;;;;4186716;28;21097;-67
2022/10/15 09:36:15;;;;;;;22.40;12.90;;;9.30;99.90;;;;;;4194450;28;20477;-66
2022/10/15 09:38:45;;;;;;;21.38;13.15;;;9.40;99.90;;;;;;4188139;28;20474;-64
2022/10/15 09:41:15;;;;;;;24.33;12.35;;;9.60;99.90;;;;;;4111262;28;20109;-63
2022/10/15 09:43:26;;;;;;;18.88;10.95;;;9.70;99.90;;;;;;4193781;28;20051;-64
2022/10/15 09:45:27;;;;;;;19.30;11.63;;;9.70;99.90;;;;;;4191042;28;20074;-63
2022/10/15 09:47:31;;;;;;;20.40;11.00;;;9.60;99.90;;;;;;4177704;28;20855;-63
2022/10/15 09:49:32;;;;;;;17.50;10.73;;;9.70;99.90;;;;;;4178006;28;20314;-62
2022/10/15 09:51:59;;;;;;;22.83;12.93;;;9.80;99.90;;;;;;4177694;28;20029;-63
2022/10/15 09:54:24;;;;;;;18.27;11.60;;;9.90;99.90;;;;;;4132146;28;20474;-64
2022/10/15 09:56:35;;;;;;;19.30;11.30;;;10.00;99.90;;;;;;4177186;28;20041;-63
2022/10/15 09:58:47;;;;;;;19.20;10.70;;;10.00;99.90;;;;;;4178627;28;20402;-62
2022/10/15 10:01:07;;;;;;;17.80;11.03;;;10.10;99.90;;;;;;4177330;28;20071;-62
2022/10/15 10:03:14;;;;;;;18.83;11.05;;;10.20;99.90;;;;;;4178568;28;20036;-63
2022/10/15 10:05:30;;;;;;;23.07;11.67;;;10.10;99.90;;;;;;4187327;28;20060;-63
2022/10/15 10:07:36;;;;;;;18.33;11.13;;;10.10;99.90;;;;;;4173604;28;20033;-62
2022/10/15 10:09:50;;;;;;;18.10;11.13;;;10.20;99.90;;;;;;4176419;28;20087;-62
2022/10/15 10:11:59;;;;;;;18.97;12.03;;;10.20;99.90;;;;;;4178299;28;20086;-64
2022/10/15 10:14:03;;;;;;;18.43;10.87;;;10.30;99.90;;;;;;4180275;28;20024;-64
2022/10/15 10:16:08;;;;;;;18.93;11.67;;;10.40;99.90;;;;;;4161744;28;20029;-62
2022/10/15 10:18:20;;;;;;;20.80;11.57;;;10.60;99.90;;;;;;4160127;28;20440;-63
2022/10/15 10:20:31;;;;;;;18.50;12.20;;;10.70;99.90;;;;;;4181610;28;20029;-62
2022/10/15 10:22:42;;;;;;;17.53;11.60;;;10.70;99.90;;;;;;4185200;28;20037;-63
2022/10/15 10:24:46;;;;;;;19.10;11.33;;;10.70;99.90;;;;;;4193343;28;20081;-62
2022/10/15 10:26:47;;;;;;;17.00;11.57;;;10.80;99.90;;;;;;4193651;28;20029;-62
2022/10/15 10:28:52;;;;;;;17.03;10.60;;;10.90;99.90;;;;;;4194021;28;20555;-63
2022/10/15 10:30:57;;;;;;;18.07;10.70;;;11.00;99.90;;;;;;4193387;28;20460;-63
2022/10/15 10:33:00;;;;;;;18.23;10.60;;;10.90;99.90;;;;;;4194862;28;20051;-63
2022/10/15 10:35:04;;;;;;;18.50;11.50;;;11.00;99.90;;;;;;4193466;28;20068;-62
2022/10/15 10:37:06;;;;;;;15.10;10.57;;;11.00;99.90;;;;;;4192441;28;20048;-64
2022/10/15 10:39:13;;;;;;;17.63;11.27;;;11.00;99.90;;;;;;4193150;28;20020;-61
2022/10/15 10:41:14;;;;;;;17.00;10.83;;;11.10;99.90;;;;;;4193517;28;20534;-61